Time;durP1;ratioP1;P1;durP2;ratioP2;P2;SDS_P1;SDS_P2;PMS_P1;PMS_P2;Temp;Humidity;BMP_temperature;BMP_pressure;BME280_temperature;BME280_humidity;BME280_pressure;Samples;Min_cycle;Max_cycle;Signal;HPM_P1;HPM_P2
2024/04/20 00:00:27;;;;;;;3.35;1.15;;;6.60;94.30;;;;;;5488873;26;20509;-35
2024/04/20 00:02:53;;;;;;;2.25;1.02;;;6.60;94.30;;;;;;5488265;26;20009;-34
2024/04/20 00:05:19;;;;;;;4.78;1.10;;;6.60;94.30;;;;;;5488321;26;20450;-36
2024/04/20 00:07:48;;;;;;;1.35;0.90;;;6.60;94.20;;;;;;5487645;26;20002;-36
2024/04/20 00:10:16;;;;;;;4.95;1.20;;;6.60;94.20;;;;;;5487998;26;20328;-36
2024/04/20 00:12:42;;;;;;;1.45;1.00;;;6.60;94.30;;;;;;5488570;26;20322;-35
2024/04/20 00:15:08;;;;;;;3.22;1.00;;;6.60;94.30;;;;;;5488319;26;19998;-35
2024/04/20 00:17:36;;;;;;;3.28;0.80;;;6.60;94.20;;;;;;5488441;26;20006;-34
2024/04/20 00:20:01;;;;;;;2.88;0.90;;;6.60;94.30;;;;;;5488498;26;20009;-35
2024/04/20 00:22:27;;;;;;;1.35;0.90;;;6.60;94.30;;;;;;5488041;26;20002;-36
2024/04/20 00:24:52;;;;;;;1.70;0.90;;;6.60;94.30;;;;;;5488268;26;20475;-35
2024/04/20 00:27:18;;;;;;;1.17;0.90;;;6.60;94.30;;;;;;5487975;26;20451;-36
2024/04/20 00:29:44;;;;;;;1.42;1.10;;;6.60;94.30;;;;;;5488045;26;20400;-35
2024/04/20 00:32:10;;;;;;;1.63;0.70;;;6.60;94.20;;;;;;5488194;26;20498;-38
2024/04/20 00:34:36;;;;;;;2.10;1.10;;;6.70;94.20;;;;;;5488043;26;20009;-36
2024/04/20 00:37:04;;;;;;;2.50;0.88;;;6.70;94.20;;;;;;5488077;26;20194;-36
2024/04/20 00:39:29;;;;;;;2.75;0.85;;;6.70;94.20;;;;;;5488250;26;19995;-35
2024/04/20 00:41:55;;;;;;;4.95;1.38;;;6.60;94.20;;;;;;5488003;26;20026;-34
2024/04/20 00:44:21;;;;;;;2.45;1.10;;;6.60;94.20;;;;;;5487004;26;20002;-37
2024/04/20 00:46:49;;;;;;;1.80;0.93;;;6.60;94.20;;;;;;5487671;26;20022;-35
2024/04/20 00:49:15;;;;;;;1.08;0.73;;;6.60;94.20;;;;;;5487798;26;20010;-36
2024/04/20 00:51:43;;;;;;;2.45;0.80;;;6.60;94.20;;;;;;5487935;26;20014;-35
2024/04/20 00:54:11;;;;;;;0.70;0.70;;;6.60;94.20;;;;;;5487697;26;19998;-36
2024/04/20 00:56:37;;;;;;;1.08;0.80;;;6.50;94.20;;;;;;5487796;26;19994;-38
2024/04/20 00:59:04;;;;;;;2.67;0.90;;;6.60;94.20;;;;;;5487623;26;19998;-36
2024/04/20 01:01:30;;;;;;;4.18;0.98;;;6.50;94.10;;;;;;5486975;26;19998;-37
2024/04/20 01:03:56;;;;;;;1.02;0.68;;;6.50;94.10;;;;;;5487694;26;20408;-35
2024/04/20 01:06:21;;;;;;;1.55;1.05;;;6.50;94.10;;;;;;5485646;26;20005;-35
2024/04/20 01:08:48;;;;;;;2.13;0.80;;;6.50;94.10;;;;;;5487508;26;20450;-35
2024/04/20 01:11:15;;;;;;;1.52;0.70;;;6.50;94.10;;;;;;5487478;26;20073;-35
2024/04/20 01:13:50;;;;;;;1.60;0.73;;;6.50;94.10;;;;;;5487711;26;20010;-34
2024/04/20 01:16:15;;;;;;;2.55;0.60;;;6.50;94.10;;;;;;5487613;26;19998;-35
2024/04/20 01:18:41;;;;;;;1.00;0.73;;;6.50;94.10;;;;;;5487451;26;20025;-35
2024/04/20 01:21:07;;;;;;;1.10;0.68;;;6.50;94.10;;;;;;5487462;26;20459;-35
2024/04/20 01:23:32;;;;;;;1.80;0.80;;;6.50;94.10;;;;;;5487575;26;20450;-35
2024/04/20 01:25:58;;;;;;;1.58;0.80;;;6.40;94.00;;;;;;5487321;26;20034;-37
2024/04/20 01:28:24;;;;;;;2.20;0.77;;;6.40;94.00;;;;;;5487058;26;20014;-37
2024/04/20 01:30:49;;;;;;;1.00;0.80;;;6.40;94.00;;;;;;5487117;26;20486;-35
2024/04/20 01:33:15;;;;;;;1.35;0.60;;;6.40;94.00;;;;;;5487317;26;20009;-34
2024/04/20 01:35:41;;;;;;;1.30;0.77;;;6.40;94.10;;;;;;5487486;26;20002;-35
2024/04/20 01:38:07;;;;;;;2.53;0.60;;;6.40;94.00;;;;;;5486813;26;20002;-36
2024/04/20 01:40:33;;;;;;;0.93;0.50;;;6.40;94.10;;;;;;5487243;26;20380;-35
2024/04/20 01:42:59;;;;;;;0.90;0.60;;;6.40;94.00;;;;;;5487094;26;20009;-35
2024/04/20 01:45:24;;;;;;;2.25;0.65;;;6.40;94.10;;;;;;5486975;26;20013;-37
2024/04/20 01:47:50;;;;;;;1.58;0.47;;;6.40;94.00;;;;;;5486952;26;20017;-36
2024/04/20 01:50:16;;;;;;;1.20;0.60;;;6.40;94.00;;;;;;5486931;26;20010;-35
2024/04/20 01:52:42;;;;;;;1.45;0.80;;;6.40;94.00;;;;;;5487063;26;20002;-36
2024/04/20 01:55:08;;;;;;;1.23;0.70;;;6.40;94.00;;;;;;5486611;26;19994;-37
2024/04/20 01:57:34;;;;;;;3.22;0.82;;;6.40;94.00;;;;;;5488778;26;20810;-36
2024/04/20 02:00:00;;;;;;;2.17;0.73;;;6.40;94.00;;;;;;5490277;26;20005;-35
2024/04/20 02:02:25;;;;;;;1.75;0.70;;;6.30;94.00;;;;;;5490292;26;20443;-36
2024/04/20 02:04:51;;;;;;;2.30;0.68;;;6.40;94.00;;;;;;5490805;26;20037;-35
2024/04/20 02:07:16;;;;;;;1.13;0.60;;;6.40;94.10;;;;;;5490503;26;20007;-36
2024/04/20 02:09:45;;;;;;;1.17;0.70;;;6.40;94.10;;;;;;5490251;26;20002;-35
2024/04/20 02:12:10;;;;;;;2.35;0.80;;;6.50;94.10;;;;;;5490151;26;20355;-37
2024/04/20 02:14:37;;;;;;;1.73;0.60;;;6.40;94.00;;;;;;5490517;26;20055;-36
2024/04/20 02:17:02;;;;;;;2.13;0.68;;;6.50;94.10;;;;;;5490338;26;20024;-34
2024/04/20 02:19:28;;;;;;;1.05;0.80;;;6.50;94.10;;;;;;5490340;26;20424;-35
2024/04/20 02:21:54;;;;;;;1.95;0.80;;;6.50;94.00;;;;;;5490244;26;19994;-35
2024/04/20 02:24:19;;;;;;;1.73;0.68;;;6.50;94.00;;;;;;5489874;26;20459;-36
2024/04/20 02:26:45;;;;;;;2.20;1.42;;;6.50;94.00;;;;;;5489779;26;20057;-35
2024/04/20 02:29:10;;;;;;;1.30;0.77;;;6.50;94.00;;;;;;5490227;26;20049;-35
2024/04/20 02:31:36;;;;;;;2.13;0.80;;;6.50;94.00;;;;;;5490362;26;19994;-36
2024/04/20 02:34:02;;;;;;;1.10;0.88;;;6.40;94.00;;;;;;5490042;26;20013;-36
2024/04/20 02:36:28;;;;;;;2.10;0.70;;;6.40;94.10;;;;;;5489988;26;20353;-37
2024/04/20 02:38:53;;;;;;;1.52;0.70;;;6.40;94.10;;;;;;5490005;26;20454;-35
2024/04/20 02:41:19;;;;;;;2.13;0.90;;;6.40;94.10;;;;;;5490041;26;20009;-36
2024/04/20 02:43:46;;;;;;;3.42;0.88;;;6.40;94.10;;;;;;5489793;26;20400;-37
2024/04/20 02:46:12;;;;;;;1.58;0.70;;;6.30;94.20;;;;;;5489567;26;20005;-36
2024/04/20 02:48:38;;;;;;;2.92;0.75;;;6.40;94.20;;;;;;5489476;26;19998;-36
2024/04/20 02:51:04;;;;;;;2.17;0.98;;;6.40;94.10;;;;;;5489473;26;19995;-36
2024/04/20 02:53:30;;;;;;;1.33;0.60;;;6.40;94.10;;;;;;5489575;26;20000;-36
2024/04/20 02:55:56;;;;;;;1.17;0.65;;;6.40;94.20;;;;;;5489609;26;20013;-36
2024/04/20 02:58:22;;;;;;;2.92;0.80;;;6.40;94.10;;;;;;5489307;26;20430;-35
2024/04/20 03:00:57;;;;;;;3.17;0.80;;;6.40;94.10;;;;;;5489759;26;20331;-37
2024/04/20 03:03:23;;;;;;;4.13;0.90;;;6.40;94.10;;;;;;5489146;26;20026;-36
2024/04/20 03:05:48;;;;;;;3.65;0.88;;;6.50;94.10;;;;;;5489515;26;20002;-36
2024/04/20 03:08:14;;;;;;;3.90;0.90;;;6.50;94.10;;;;;;5488627;26;20013;-37
2024/04/20 03:10:40;;;;;;;2.55;0.75;;;6.50;94.10;;;;;;5489313;26;20009;-36
2024/04/20 03:13:05;;;;;;;0.88;0.52;;;6.50;94.00;;;;;;5489377;26;20078;-36
2024/04/20 03:15:31;;;;;;;4.00;0.60;;;6.50;94.00;;;;;;5489629;26;20070;-38
2024/04/20 03:17:56;;;;;;;4.78;0.73;;;6.50;94.00;;;;;;5489280;26;20008;-35
2024/04/20 03:20:22;;;;;;;1.50;0.68;;;6.50;94.00;;;;;;5489503;26;20523;-37
2024/04/20 03:22:48;;;;;;;3.00;0.90;;;6.40;94.00;;;;;;5489484;26;20408;-35
2024/04/20 03:25:15;;;;;;;2.33;0.60;;;6.40;94.00;;;;;;5489484;26;20005;-36
2024/04/20 03:27:41;;;;;;;2.35;0.50;;;6.50;94.10;;;;;;5489423;26;20438;-37
2024/04/20 03:30:07;;;;;;;4.25;1.02;;;6.40;94.10;;;;;;5489383;26;20037;-34
2024/04/20 03:32:33;;;;;;;4.43;0.80;;;6.40;94.00;;;;;;5489259;26;19994;-33
2024/04/20 03:34:58;;;;;;;2.38;0.70;;;6.40;94.00;;;;;;5489186;26;20518;-36
2024/04/20 03:37:24;;;;;;;1.67;0.50;;;6.40;94.10;;;;;;5487080;26;19999;-35
2024/04/20 03:39:49;;;;;;;2.05;0.85;;;6.40;94.10;;;;;;5488851;26;20002;-36
2024/04/20 03:42:15;;;;;;;4.10;0.95;;;6.50;94.10;;;;;;5488671;26;20459;-36
2024/04/20 03:44:40;;;;;;;1.63;0.70;;;6.50;94.10;;;;;;5487277;26;19994;-36
2024/04/20 03:47:06;;;;;;;1.27;0.52;;;6.50;94.00;;;;;;5488939;26;20082;-35
2024/04/20 03:49:32;;;;;;;2.55;0.80;;;6.40;94.00;;;;;;5488926;26;20453;-37
2024/04/20 03:51:57;;;;;;;2.17;0.70;;;6.40;94.00;;;;;;5489006;26;20017;-35
2024/04/20 03:54:23;;;;;;;2.50;0.82;;;6.40;94.00;;;;;;5488930;26;20161;-34
2024/04/20 03:56:49;;;;;;;3.33;0.60;;;6.30;94.00;;;;;;5488273;26;20002;-36
2024/04/20 03:59:14;;;;;;;4.40;1.70;;;6.30;94.10;;;;;;5488483;26;20443;-35
2024/04/20 04:01:40;;;;;;;1.45;0.45;;;6.30;94.10;;;;;;5486583;26;20058;-36
2024/04/20 04:04:06;;;;;;;2.88;0.68;;;6.30;94.10;;;;;;5487008;26;20070;-35
2024/04/20 04:06:32;;;;;;;3.20;0.80;;;6.30;94.10;;;;;;5488842;26;20005;-35
2024/04/20 04:08:59;;;;;;;3.13;0.63;;;6.30;94.10;;;;;;5488177;26;19998;-36
2024/04/20 04:11:24;;;;;;;2.08;0.65;;;6.20;94.10;;;;;;5488190;26;20014;-35
2024/04/20 04:13:50;;;;;;;2.75;0.60;;;6.30;94.10;;;;;;5488752;26;20002;-36
2024/04/20 04:16:15;;;;;;;3.75;0.75;;;6.20;94.10;;;;;;5488259;26;20002;-36
2024/04/20 04:18:41;;;;;;;2.25;0.60;;;6.20;94.10;;;;;;5487636;26;20006;-36
2024/04/20 04:21:10;;;;;;;3.47;0.90;;;6.30;94.40;;;;;;5487804;26;19994;-35
2024/04/20 04:23:36;;;;;;;2.80;0.95;;;6.20;94.10;;;;;;5488214;26;20002;-39
2024/04/20 04:26:03;;;;;;;4.00;1.20;;;6.30;94.20;;;;;;5488193;26;20447;-37
2024/04/20 04:28:32;;;;;;;5.88;0.85;;;6.30;94.10;;;;;;5487865;26;20017;-39
2024/04/20 04:30:58;;;;;;;5.20;0.93;;;6.20;94.10;;;;;;5488290;26;20017;-34
2024/04/20 04:33:24;;;;;;;3.53;0.93;;;6.30;94.40;;;;;;5488155;26;20063;-36
2024/04/20 04:35:59;;;;;;;4.47;1.00;;;6.30;94.10;;;;;;5488117;26;20009;-34
2024/04/20 04:38:26;;;;;;;6.22;1.35;;;6.30;94.10;;;;;;5487679;26;20002;-36
2024/04/20 04:40:53;;;;;;;3.20;1.23;;;6.30;94.10;;;;;;5488106;26;20324;-36
2024/04/20 04:43:19;;;;;;;2.80;0.90;;;6.30;94.10;;;;;;5487994;26;20013;-36
2024/04/20 04:45:45;;;;;;;4.13;1.15;;;6.40;94.20;;;;;;5488038;26;20002;-35
2024/04/20 04:48:15;;;;;;;4.35;1.55;;;6.30;94.10;;;;;;5488071;26;20008;-36
2024/04/20 04:50:41;;;;;;;2.90;0.70;;;6.40;94.00;;;;;;5488026;26;20010;-36
2024/04/20 04:53:06;;;;;;;5.30;1.00;;;6.30;94.00;;;;;;5488066;26;20075;-35
2024/04/20 04:55:32;;;;;;;4.80;1.10;;;6.30;93.90;;;;;;5488178;26;19998;-36
2024/04/20 04:57:58;;;;;;;2.97;0.80;;;6.20;93.90;;;;;;5487623;26;20009;-34
2024/04/20 05:00:24;;;;;;;7.00;1.40;;;6.20;93.90;;;;;;5486042;26;20467;-35
2024/04/20 05:02:49;;;;;;;2.28;0.95;;;6.20;93.90;;;;;;5487493;26;20455;-36
2024/04/20 05:05:15;;;;;;;1.90;0.73;;;6.20;93.90;;;;;;5487614;26;19998;-37
2024/04/20 05:07:42;;;;;;;4.93;0.90;;;6.20;93.90;;;;;;5487417;26;20005;-52
2024/04/20 05:10:08;;;;;;;2.47;0.77;;;6.20;93.90;;;;;;5487254;26;20079;-38
2024/04/20 05:12:34;;;;;;;7.45;0.80;;;6.20;93.80;;;;;;5487778;26;20002;-40
2024/04/20 05:15:00;;;;;;;2.80;0.82;;;6.10;93.80;;;;;;5487434;26;20039;-44
2024/04/20 05:17:25;;;;;;;2.90;0.90;;;6.20;93.80;;;;;;5487414;26;19998;-41
2024/04/20 05:19:52;;;;;;;4.00;0.82;;;6.20;93.80;;;;;;5487588;26;19998;-38
2024/04/20 05:22:17;;;;;;;3.88;0.70;;;6.20;93.80;;;;;;5487228;26;20066;-36
2024/04/20 05:24:43;;;;;;;3.53;0.60;;;6.20;93.90;;;;;;5487393;26;20010;-35
2024/04/20 05:27:09;;;;;;;2.85;0.80;;;6.10;93.70;;;;;;5487311;26;20008;-36
2024/04/20 05:29:35;;;;;;;1.75;0.68;;;6.20;93.80;;;;;;5487492;26;20360;-35
2024/04/20 05:32:00;;;;;;;2.33;0.63;;;6.20;93.80;;;;;;5487186;26;20122;-34
2024/04/20 05:34:26;;;;;;;2.03;0.45;;;6.20;93.80;;;;;;5487452;26;20435;-35
2024/04/20 05:36:51;;;;;;;2.75;0.70;;;6.20;93.80;;;;;;5487210;26;20069;-38
2024/04/20 05:39:18;;;;;;;2.90;0.50;;;6.20;93.70;;;;;;5487016;26;20014;-35
2024/04/20 05:41:44;;;;;;;5.88;0.95;;;6.30;93.70;;;;;;5487035;26;20006;-34
2024/04/20 05:44:10;;;;;;;4.05;0.82;;;6.30;93.70;;;;;;5486765;26;20528;-35
2024/04/20 05:46:35;;;;;;;4.53;0.73;;;6.30;93.60;;;;;;5487016;26;20425;-35
2024/04/20 05:49:01;;;;;;;1.52;0.70;;;6.30;93.60;;;;;;5486763;26;20466;-35
2024/04/20 05:51:26;;;;;;;3.75;0.80;;;6.30;93.60;;;;;;5486463;26;19998;-34
2024/04/20 05:53:52;;;;;;;3.70;0.70;;;6.30;93.50;;;;;;5486989;26;20458;-37
2024/04/20 05:56:18;;;;;;;2.20;0.52;;;6.30;93.80;;;;;;5486670;26;20016;-33
2024/04/20 05:58:45;;;;;;;3.67;0.77;;;6.30;93.50;;;;;;5486130;26;19998;-34
2024/04/20 06:01:12;;;;;;;2.38;0.70;;;6.30;93.50;;;;;;5485965;26;19998;-32
2024/04/20 06:03:38;;;;;;;5.43;0.77;;;6.40;93.70;;;;;;5486544;26;20747;-35
2024/04/20 06:06:04;;;;;;;2.80;0.60;;;6.40;93.60;;;;;;5486519;26;20009;-41
2024/04/20 06:08:30;;;;;;;1.90;0.60;;;6.40;93.50;;;;;;5486033;26;20026;-35
2024/04/20 06:10:57;;;;;;;3.00;0.80;;;6.40;93.50;;;;;;5484755;26;20301;-35
2024/04/20 06:13:23;;;;;;;5.25;1.13;;;6.40;93.50;;;;;;5486737;26;20454;-36
2024/04/20 06:15:48;;;;;;;3.38;0.70;;;6.40;93.50;;;;;;5486538;26;20013;-35
2024/04/20 06:18:14;;;;;;;3.85;0.70;;;6.50;93.60;;;;;;5486541;26;20002;-32
2024/04/20 06:20:40;;;;;;;3.30;0.70;;;6.60;93.60;;;;;;5486317;26;20383;-36
2024/04/20 06:23:06;;;;;;;4.55;0.65;;;6.60;93.50;;;;;;5486371;26;19998;-34
2024/04/20 06:25:32;;;;;;;3.55;0.85;;;6.70;93.50;;;;;;5486161;26;20075;-35
2024/04/20 06:27:58;;;;;;;2.92;0.77;;;6.80;93.50;;;;;;5486160;26;20062;-36
2024/04/20 06:30:24;;;;;;;3.38;0.93;;;6.90;93.50;;;;;;5485912;26;20447;-35
2024/04/20 06:32:51;;;;;;;4.32;1.10;;;7.00;93.40;;;;;;5486454;26;20006;-35
2024/04/20 06:35:17;;;;;;;4.65;0.88;;;7.10;93.30;;;;;;5486131;26;20006;-34
2024/04/20 06:37:42;;;;;;;2.70;0.90;;;7.10;93.20;;;;;;5486321;26;20331;-36
2024/04/20 06:40:08;;;;;;;2.88;0.98;;;7.20;93.20;;;;;;5486114;26;20461;-37
2024/04/20 06:42:34;;;;;;;6.82;0.90;;;7.20;93.10;;;;;;5486977;26;20074;-36
2024/04/20 06:44:59;;;;;;;4.32;0.90;;;7.20;93.10;;;;;;5489911;26;20062;-35
2024/04/20 06:47:25;;;;;;;3.45;0.93;;;7.30;93.10;;;;;;5489634;26;20002;-36
2024/04/20 06:49:52;;;;;;;2.20;1.10;;;7.30;93.00;;;;;;5489894;26;20005;-38
2024/04/20 06:52:18;;;;;;;5.50;1.00;;;7.40;93.10;;;;;;5489750;26;20012;-36
2024/04/20 06:54:44;;;;;;;4.90;1.27;;;7.40;93.00;;;;;;5490047;26;19998;-37
2024/04/20 06:57:09;;;;;;;4.03;1.10;;;7.50;92.90;;;;;;5489103;26;20013;-35
2024/04/20 06:59:35;;;;;;;8.82;1.65;;;7.60;92.90;;;;;;5489468;26;20001;-37
2024/04/20 07:02:00;;;;;;;6.20;1.48;;;7.60;92.70;;;;;;5489594;26;20465;-37
2024/04/20 07:04:26;;;;;;;4.07;1.00;;;7.60;92.70;;;;;;5489705;26;20038;-37
2024/04/20 07:06:52;;;;;;;4.20;1.10;;;7.60;92.70;;;;;;5489567;26;20002;-38
2024/04/20 07:09:17;;;;;;;3.13;0.70;;;7.60;92.70;;;;;;5489611;26;20454;-35
2024/04/20 07:11:43;;;;;;;5.97;0.88;;;7.70;92.70;;;;;;5489055;26;19998;-37
2024/04/20 07:14:09;;;;;;;3.50;0.98;;;7.70;92.60;;;;;;5489464;26;20018;-34
2024/04/20 07:16:34;;;;;;;5.45;0.90;;;7.60;92.50;;;;;;5489506;26;20002;-34
2024/04/20 07:19:00;;;;;;;3.17;1.00;;;7.50;92.40;;;;;;5489349;26;19998;-34
2024/04/20 07:21:26;;;;;;;2.75;0.70;;;7.50;92.30;;;;;;5489509;26;20446;-35
2024/04/20 07:23:51;;;;;;;2.97;0.50;;;7.50;92.50;;;;;;5489405;26;20415;-35
2024/04/20 07:26:17;;;;;;;1.88;0.55;;;7.50;92.60;;;;;;5489203;26;20005;-35
2024/04/20 07:28:42;;;;;;;2.25;0.98;;;7.50;92.60;;;;;;5489149;26;20009;-36
2024/04/20 07:31:08;;;;;;;1.75;0.70;;;7.50;92.50;;;;;;5489013;26;20026;-34
2024/04/20 07:33:34;;;;;;;2.72;0.93;;;7.60;92.50;;;;;;5489099;26;20067;-35
2024/04/20 07:35:59;;;;;;;2.92;0.88;;;7.70;92.40;;;;;;5489127;26;20443;-33
2024/04/20 07:38:25;;;;;;;5.55;0.98;;;7.70;92.30;;;;;;5486993;26;19998;-35
2024/04/20 07:40:50;;;;;;;4.70;1.02;;;7.70;92.20;;;;;;5489158;26;20012;-35
2024/04/20 07:43:17;;;;;;;5.35;1.02;;;7.70;92.30;;;;;;5488976;26;20002;-34
2024/04/20 07:45:42;;;;;;;2.95;0.75;;;7.60;92.40;;;;;;5488967;26;20013;-37
2024/04/20 07:48:08;;;;;;;4.30;0.85;;;7.70;92.40;;;;;;5488694;26;19999;-35
2024/04/20 07:50:34;;;;;;;3.95;1.13;;;7.70;92.10;;;;;;5488666;26;20002;-36
2024/04/20 07:53:00;;;;;;;5.68;0.90;;;7.70;92.10;;;;;;5488637;26;20009;-34
2024/04/20 07:55:26;;;;;;;6.40;1.02;;;7.70;92.20;;;;;;5487163;26;20006;-38
2024/04/20 07:57:51;;;;;;;6.60;1.00;;;7.70;92.20;;;;;;5488471;26;19994;-37
2024/04/20 08:00:18;;;;;;;8.52;1.23;;;7.70;92.20;;;;;;5488732;26;19995;-34
2024/04/20 08:02:44;;;;;;;6.82;1.50;;;7.80;92.10;;;;;;5488376;26;20002;-36
2024/04/20 08:05:09;;;;;;;7.00;1.42;;;7.90;92.00;;;;;;5488254;26;20002;-33
2024/04/20 08:07:35;;;;;;;8.18;1.30;;;8.00;91.90;;;;;;5488626;26;20358;-35
2024/04/20 08:10:01;;;;;;;4.82;1.27;;;8.20;91.90;;;;;;5488414;26;20002;-34
2024/04/20 08:12:26;;;;;;;8.70;1.52;;;8.30;91.60;;;;;;5486828;26;20028;-33
2024/04/20 08:14:52;;;;;;;6.03;1.38;;;8.40;91.60;;;;;;5488688;26;19998;-36
2024/04/20 08:17:18;;;;;;;8.63;1.95;;;8.50;91.50;;;;;;5488445;26;19998;-35
2024/04/20 08:19:44;;;;;;;6.20;1.90;;;8.50;90.90;;;;;;5486940;26;20043;-35
2024/04/20 08:22:10;;;;;;;5.53;1.30;;;8.50;90.80;;;;;;5488649;26;20002;-35
2024/04/20 08:24:35;;;;;;;4.93;1.38;;;8.40;90.90;;;;;;5488261;26;20002;-35
2024/04/20 08:27:01;;;;;;;7.57;1.30;;;8.40;91.00;;;;;;5488232;26;20033;-35
2024/04/20 08:29:26;;;;;;;4.57;1.10;;;8.30;91.10;;;;;;5488030;26;19998;-34
2024/04/20 08:31:52;;;;;;;4.85;1.02;;;8.30;91.30;;;;;;5486405;26;19994;-35
2024/04/20 08:34:18;;;;;;;8.10;1.30;;;8.20;91.40;;;;;;5488008;26;20006;-40
2024/04/20 08:36:47;;;;;;;6.82;1.35;;;8.20;91.50;;;;;;5487969;26;20438;-34
2024/04/20 08:39:13;;;;;;;8.98;1.33;;;8.20;91.40;;;;;;5487899;26;20002;-35
2024/04/20 08:41:51;;;;;;;4.97;1.13;;;8.10;91.40;;;;;;5487842;26;20034;-32
2024/04/20 08:44:19;;;;;;;6.90;1.30;;;8.10;91.50;;;;;;5487739;26;20940;-34
2024/04/20 08:46:51;;;;;;;4.78;1.30;;;8.00;91.50;;;;;;5488148;26;20346;-35
2024/04/20 08:49:19;;;;;;;7.35;1.20;;;8.00;91.40;;;;;;5487956;26;20006;-35
2024/04/20 08:51:47;;;;;;;7.57;1.42;;;8.00;91.60;;;;;;5487803;26;20476;-35
2024/04/20 08:54:15;;;;;;;8.20;1.67;;;8.10;91.70;;;;;;5488055;26;20013;-36
2024/04/20 08:56:43;;;;;;;8.93;1.70;;;8.30;91.70;;;;;;5487746;26;20047;-34
2024/04/20 08:59:09;;;;;;;9.77;1.27;;;8.40;91.50;;;;;;5487428;26;20070;-35
2024/04/20 09:01:36;;;;;;;4.88;0.98;;;8.50;90.60;;;;;;5487575;26;20015;-34
2024/04/20 09:04:03;;;;;;;4.13;1.13;;;8.50;89.90;;;;;;5485552;26;20461;-34
2024/04/20 09:06:29;;;;;;;2.63;0.82;;;8.50;90.10;;;;;;5486985;26;20001;-34
2024/04/20 09:09:01;;;;;;;3.20;1.00;;;8.40;89.70;;;;;;5487502;26;20005;-33
2024/04/20 09:11:27;;;;;;;3.40;0.90;;;8.40;89.60;;;;;;5486788;26;19998;-34
2024/04/20 09:13:53;;;;;;;3.00;0.60;;;8.30;89.90;;;;;;5487299;26;20045;-35
2024/04/20 09:16:19;;;;;;;1.75;0.70;;;8.20;89.90;;;;;;5487330;26;20013;-34
2024/04/20 09:18:44;;;;;;;2.63;0.80;;;8.20;90.00;;;;;;5486996;26;20523;-34
2024/04/20 09:21:10;;;;;;;2.95;0.88;;;8.20;90.20;;;;;;5487306;26;20016;-34
2024/04/20 09:23:38;;;;;;;4.88;1.23;;;8.20;90.40;;;;;;5487305;26;20006;-35
2024/04/20 09:26:04;;;;;;;3.35;0.90;;;8.30;90.20;;;;;;5487260;26;20467;-34
2024/04/20 09:28:30;;;;;;;6.95;1.15;;;8.40;90.30;;;;;;5486818;26;20003;-33
2024/04/20 09:30:56;;;;;;;5.57;1.08;;;8.50;90.00;;;;;;5486878;26;20018;-36
2024/04/20 09:33:21;;;;;;;4.68;1.10;;;8.60;89.60;;;;;;5486864;26;19998;-37
2024/04/20 09:35:47;;;;;;;6.22;0.90;;;8.70;89.50;;;;;;5487268;26;20054;-36
2024/04/20 09:38:13;;;;;;;5.10;1.10;;;8.70;89.00;;;;;;5487118;26;20002;-36
2024/04/20 09:40:39;;;;;;;3.10;1.10;;;8.60;88.90;;;;;;5487053;26;20103;-33
2024/04/20 09:43:06;;;;;;;8.95;1.80;;;8.50;89.70;;;;;;5487209;26;20009;-36
2024/04/20 09:45:36;;;;;;;5.95;1.05;;;8.40;89.80;;;;;;5487308;26;19998;-35
2024/04/20 09:48:06;;;;;;;3.10;1.00;;;8.40;90.10;;;;;;5487097;26;19998;-34
2024/04/20 09:50:31;;;;;;;4.00;1.17;;;8.30;90.30;;;;;;5487134;26;20002;-35
2024/04/20 09:53:14;;;;;;;3.55;0.80;;;8.30;90.40;;;;;;5486910;26;20012;-34
2024/04/20 09:55:46;;;;;;;5.70;1.10;;;8.30;90.50;;;;;;5487102;26;20009;-33
2024/04/20 09:58:12;;;;;;;5.95;1.20;;;8.30;90.60;;;;;;5486808;26;19998;-34
2024/04/20 10:00:40;;;;;;;6.05;1.20;;;8.30;90.70;;;;;;5486991;26;19998;-34
2024/04/20 10:03:07;;;;;;;6.88;1.33;;;8.30;90.50;;;;;;5486467;26;19999;-34
2024/04/20 10:05:36;;;;;;;5.68;1.35;;;8.40;90.60;;;;;;5486565;26;19998;-35
2024/04/20 10:08:03;;;;;;;5.13;1.33;;;8.50;90.60;;;;;;5486521;26;20099;-35
2024/04/20 10:10:29;;;;;;;8.30;1.60;;;8.60;90.60;;;;;;5486504;26;20010;-33
2024/04/20 10:13:00;;;;;;;6.00;1.02;;;8.70;90.30;;;;;;5486503;26;20065;-34
2024/04/20 10:15:28;;;;;;;6.50;1.52;;;8.80;90.30;;;;;;5486755;26;20002;-34
2024/04/20 10:17:54;;;;;;;7.28;1.25;;;8.90;90.20;;;;;;5487604;26;20002;-34
2024/04/20 10:20:33;;;;;;;3.65;1.20;;;9.10;90.10;;;;;;5489996;26;20426;-33
2024/04/20 10:23:00;;;;;;;5.85;1.10;;;9.30;89.00;;;;;;5489889;26;20355;-34
2024/04/20 10:25:31;;;;;;;4.50;0.80;;;9.50;88.80;;;;;;5490040;26;20002;-34
2024/04/20 10:27:57;;;;;;;7.25;1.02;;;9.70;88.10;;;;;;5489839;26;20418;-34
2024/04/20 10:30:23;;;;;;;5.53;1.10;;;9.80;86.00;;;;;;5489708;26;20009;-34
2024/04/20 10:32:51;;;;;;;4.68;1.52;;;9.70;86.00;;;;;;5489758;26;20439;-34
2024/04/20 10:35:20;;;;;;;6.35;1.20;;;9.60;83.50;;;;;;5490020;26;20017;-34
2024/04/20 10:38:00;;;;;;;7.13;1.45;;;9.40;84.00;;;;;;5489802;26;19998;-34
2024/04/20 10:40:32;;;;;;;5.45;1.40;;;9.40;85.30;;;;;;5488014;26;20415;-34
2024/04/20 10:43:23;;;;;;;4.32;1.27;;;9.40;84.80;;;;;;5489868;26;20014;-35
2024/04/20 10:46:04;;;;;;;6.05;1.10;;;9.50;85.20;;;;;;5489873;26;20013;-32
2024/04/20 10:48:31;;;;;;;3.30;1.00;;;9.70;85.50;;;;;;5489703;26;20032;-33
2024/04/20 10:51:01;;;;;;;3.72;1.33;;;9.80;85.40;;;;;;5489979;26;20008;-35
2024/04/20 10:53:27;;;;;;;4.75;1.05;;;9.90;85.00;;;;;;5489824;26;20383;-35
2024/04/20 10:55:57;;;;;;;5.80;1.35;;;10.10;85.30;;;;;;5489359;26;20093;-34
2024/04/20 10:58:23;;;;;;;8.73;1.83;;;10.30;84.10;;;;;;5489452;26;20017;-35
2024/04/20 11:00:50;;;;;;;5.28;1.58;;;10.40;82.70;;;;;;5488940;26;20563;-33
2024/04/20 11:03:16;;;;;;;4.97;1.40;;;10.30;80.40;;;;;;5487370;26;19998;-32
2024/04/20 11:05:56;;;;;;;5.43;1.40;;;10.30;81.60;;;;;;5489316;26;20014;-34
2024/04/20 11:08:25;;;;;;;4.70;1.20;;;10.40;80.60;;;;;;5488702;26;19998;-34
2024/04/20 11:10:54;;;;;;;4.63;1.17;;;10.50;80.70;;;;;;5488946;26;20047;-33
2024/04/20 11:13:20;;;;;;;2.90;1.05;;;10.40;80.60;;;;;;5489273;26;20026;-33
2024/04/20 11:15:47;;;;;;;3.60;1.05;;;9.80;82.30;;;;;;5487201;26;20363;-31
2024/04/20 11:18:16;;;;;;;2.65;0.90;;;9.20;84.20;;;;;;5488276;26;20002;-34
2024/04/20 11:20:42;;;;;;;4.30;0.93;;;8.70;86.50;;;;;;5489085;26;19998;-32
2024/04/20 11:23:08;;;;;;;5.40;0.73;;;8.50;87.60;;;;;;5489089;26;20002;-32
2024/04/20 11:25:34;;;;;;;3.55;1.00;;;8.40;88.80;;;;;;5489404;26;20454;-33
2024/04/20 11:28:01;;;;;;;4.30;1.27;;;8.40;89.30;;;;;;5488529;26;20082;-32
2024/04/20 11:30:27;;;;;;;5.18;1.20;;;8.50;90.20;;;;;;5489157;26;20005;-32
2024/04/20 11:32:57;;;;;;;3.65;1.00;;;8.70;91.20;;;;;;5488724;26;20008;-33
2024/04/20 11:35:23;;;;;;;6.53;1.15;;;8.80;90.60;;;;;;5488646;26;20525;-32
2024/04/20 11:37:48;;;;;;;1.73;0.90;;;8.90;90.50;;;;;;5488762;26;20003;-33
2024/04/20 11:40:15;;;;;;;5.28;1.08;;;9.00;90.60;;;;;;5488798;26;19998;-32
2024/04/20 11:42:44;;;;;;;1.95;0.80;;;9.20;90.30;;;;;;5488408;26;20021;-31
2024/04/20 11:45:15;;;;;;;1.73;0.52;;;9.20;90.00;;;;;;5488582;26;19998;-32
2024/04/20 11:47:41;;;;;;;2.80;0.70;;;9.20;90.10;;;;;;5488799;26;20074;-32
2024/04/20 11:50:07;;;;;;;3.10;0.77;;;9.30;90.10;;;;;;5488906;26;20009;-32
2024/04/20 11:55:17;;;;;;;5.10;1.10;;;9.40;89.00;;;;;;5488967;26;20430;-33
2024/04/20 11:57:43;;;;;;;4.97;1.08;;;9.40;89.00;;;;;;5488369;26;20443;-33
2024/04/20 12:00:10;;;;;;;6.22;1.30;;;9.30;89.30;;;;;;5488522;26;20006;-35
2024/04/20 12:02:35;;;;;;;3.38;1.02;;;9.30;89.70;;;;;;5488344;26;20013;-33
2024/04/20 12:05:02;;;;;;;3.78;1.45;;;9.30;89.70;;;;;;5488629;26;20451;-33
2024/04/20 12:07:27;;;;;;;6.28;1.30;;;9.20;90.10;;;;;;5487784;26;20017;-32
2024/04/20 12:09:53;;;;;;;7.43;1.20;;;9.30;90.00;;;;;;5488752;26;20452;-34
2024/04/20 12:12:19;;;;;;;5.88;1.45;;;9.40;90.10;;;;;;5489030;26;20207;-32
2024/04/20 12:14:44;;;;;;;3.17;0.95;;;9.50;90.10;;;;;;5488797;26;20013;-33
2024/04/20 12:17:10;;;;;;;6.15;1.00;;;9.50;90.00;;;;;;5488133;26;19998;-33
2024/04/20 12:19:36;;;;;;;6.70;1.30;;;9.50;90.10;;;;;;5488483;26;20416;-33
2024/04/20 12:22:02;;;;;;;5.53;1.40;;;9.50;90.20;;;;;;5488165;26;19998;-33
2024/04/20 12:24:28;;;;;;;3.67;1.17;;;9.60;90.20;;;;;;5488102;26;20006;-32
2024/04/20 12:26:53;;;;;;;5.25;1.20;;;9.80;90.20;;;;;;5487954;26;20044;-33
2024/04/20 12:29:19;;;;;;;5.43;1.20;;;9.90;90.10;;;;;;5488332;26;20365;-32
2024/04/20 12:31:45;;;;;;;7.05;2.05;;;10.00;89.90;;;;;;5488126;26;20338;-33
2024/04/20 12:34:12;;;;;;;4.97;1.13;;;10.00;89.90;;;;;;5486215;26;20004;-33
2024/04/20 12:36:39;;;;;;;6.43;1.20;;;10.00;89.80;;;;;;5488450;26;20010;-32
2024/04/20 12:39:06;;;;;;;6.32;1.15;;;9.90;89.80;;;;;;5487744;26;19994;-33
2024/04/20 12:41:32;;;;;;;5.53;1.08;;;9.70;89.80;;;;;;5486928;26;20009;-32
2024/04/20 12:43:58;;;;;;;4.03;1.02;;;9.60;90.00;;;;;;5488234;26;20316;-32
2024/04/20 12:46:24;;;;;;;3.78;1.13;;;9.50;90.10;;;;;;5487879;26;20002;-33
2024/04/20 12:48:49;;;;;;;6.45;1.17;;;9.40;90.60;;;;;;5487760;26;20017;-30
2024/04/20 12:51:15;;;;;;;6.22;1.20;;;9.60;90.40;;;;;;5488498;26;20012;-32
2024/04/20 12:53:41;;;;;;;4.15;1.05;;;9.80;90.40;;;;;;5487877;26;20477;-32
2024/04/20 12:56:07;;;;;;;10.20;1.67;;;10.00;90.30;;;;;;5487808;26;19998;-33